Time;durP1;ratioP1;P1;durP2;ratioP2;P2;SDS_P1;SDS_P2;PMS_P1;PMS_P2;Temp;Humidity;BMP_temperature;BMP_pressure;BME280_temperature;BME280_humidity;BME280_pressure;Samples;Min_cycle;Max_cycle;Signal;HPM_P1;HPM_P2
2023/04/26 00:01:16;;;;;;;50.03;45.83;;;;;;;21.30;42.05;94121.84;5898006;29;108909;-62
2023/04/26 00:04:19;;;;;;;50.17;45.77;;;;;;;21.30;42.05;94119.16;5893433;29;109069;-62
2023/04/26 00:07:24;;;;;;;50.87;46.57;;;;;;;21.30;42.00;94118.41;5885770;29;110178;-62
2023/04/26 00:10:27;;;;;;;50.77;46.47;;;;;;;21.23;42.07;94100.28;5897964;29;108952;-62
2023/04/26 00:13:30;;;;;;;49.77;45.60;;;;;;;21.30;42.07;94105.09;5894386;29;109146;-62
2023/04/26 00:16:33;;;;;;;49.93;45.63;;;;;;;21.29;42.29;94096.31;5899825;29;108940;-63
2023/04/26 00:19:37;;;;;;;52.00;47.33;;;;;;;21.29;42.39;94093.66;5896906;29;109504;-63
2023/04/26 00:22:41;;;;;;;52.40;48.00;;;;;;;21.28;42.24;94089.44;5903103;29;109030;-63
2023/04/26 00:25:45;;;;;;;52.47;47.87;;;;;;;21.29;42.09;94085.69;5907441;29;109037;-62
2023/04/26 00:28:48;;;;;;;51.83;47.50;;;;;;;21.30;42.23;94091.78;5921197;29;108912;-62
2023/04/26 00:31:51;;;;;;;50.80;46.37;;;;;;;21.29;42.46;94087.56;5894688;29;109225;-65
2023/04/26 00:34:54;;;;;;;51.67;47.10;;;;;;;21.27;41.93;94084.47;5898346;29;108869;-62
2023/04/26 00:37:59;;;;;;;48.03;44.10;;;;;;;21.19;42.51;94060.25;5908362;29;108986;-62
2023/04/26 00:41:02;;;;;;;49.73;45.60;;;;;;;21.25;42.20;94066.16;5892011;29;108993;-63
2023/04/26 00:44:05;;;;;;;50.50;46.27;;;;;;;21.25;42.04;94068.81;5894452;29;108984;-64
2023/04/26 00:47:08;;;;;;;50.43;46.23;;;;;;;21.27;42.00;94071.94;5898092;29;108912;-63
2023/04/26 00:50:11;;;;;;;49.07;44.97;;;;;;;21.26;42.21;94073.03;5907033;29;108808;-63
2023/04/26 00:53:16;;;;;;;52.70;48.17;;;;;;;21.19;42.08;94064.81;5882124;29;110326;-62
2023/04/26 00:56:21;;;;;;;49.60;45.27;;;;;;;21.27;42.04;94073.81;5907246;29;108953;-64
2023/04/26 00:59:25;;;;;;;51.10;46.80;;;;;;;21.25;42.19;94074.13;5910838;29;110521;-62
2023/04/26 01:02:28;;;;;;;49.67;45.47;;;;;;;21.23;42.08;94076.34;5901535;29;108911;-64
2023/04/26 01:05:31;;;;;;;48.40;44.23;;;;;;;21.25;42.25;94078.69;5894070;29;109525;-62
2023/04/26 01:08:36;;;;;;;48.80;44.67;;;;;;;21.24;42.19;94077.91;5896124;29;108990;-62
2023/04/26 01:11:39;;;;;;;49.03;44.87;;;;;;;21.18;42.28;94074.66;5902319;29;108895;-62
2023/04/26 01:14:43;;;;;;;48.33;44.33;;;;;;;21.19;41.89;94076.22;5896058;29;108949;-62
2023/04/26 01:17:47;;;;;;;48.30;44.30;;;;;;;21.24;42.15;94077.13;5906224;29;108999;-62
2023/04/26 01:20:50;;;;;;;48.90;44.80;;;;;;;21.23;42.53;94091.53;5903073;29;109365;-62
2023/04/26 01:23:55;;;;;;;47.40;43.30;;;;;;;21.19;41.99;94075.44;5911838;29;109264;-62
2023/04/26 01:26:58;;;;;;;46.73;42.83;;;;;;;21.20;42.12;94066.34;5895177;29;109277;-62
2023/04/26 01:30:02;;;;;;;46.37;42.40;;;;;;;21.19;42.08;94057.59;5897827;29;109023;-62
2023/04/26 01:33:05;;;;;;;46.80;42.80;;;;;;;21.21;42.00;94062.59;5906349;29;108960;-62
2023/04/26 01:36:09;;;;;;;46.90;43.00;;;;;;;21.19;42.10;94062.13;5883258;29;108944;-61
2023/04/26 01:39:14;;;;;;;45.57;41.80;;;;;;;21.19;41.99;94065.56;5894159;29;110396;-64
2023/04/26 01:42:17;;;;;;;46.57;42.60;;;;;;;21.19;42.00;94076.22;5892977;29;109033;-63
2023/04/26 01:45:20;;;;;;;47.30;43.30;;;;;;;21.19;41.87;94072.78;5901902;29;109016;-63
2023/04/26 01:48:23;;;;;;;45.33;41.53;;;;;;;21.18;41.98;94077.31;5894111;29;108928;-68
2023/04/26 01:51:27;;;;;;;44.67;40.87;;;;;;;21.17;42.16;94077.63;5893723;29;108920;-62
2023/04/26 01:54:31;;;;;;;47.20;43.07;;;;;;;21.17;42.05;94077.63;5904377;29;109116;-62
2023/04/26 01:57:34;;;;;;;46.40;42.50;;;;;;;21.18;42.27;94079.97;5915624;29;108962;-62
2023/04/26 02:00:37;;;;;;;44.63;40.93;;;;;;;21.14;42.19;94062.31;5895644;29;108999;-62
2023/04/26 02:03:40;;;;;;;42.73;39.23;;;;;;;21.16;42.18;94065.41;5902526;29;108961;-62
2023/04/26 02:06:43;;;;;;;43.70;40.00;;;;;;;21.16;42.36;94062.75;5904931;29;108946;-63
2023/04/26 02:09:48;;;;;;;43.47;39.57;;;;;;;21.14;41.85;94059.66;5905263;29;109072;-62
2023/04/26 02:12:51;;;;;;;41.70;37.93;;;;;;;21.15;42.12;94066.53;5889342;29;108941;-62
2023/04/26 02:15:54;;;;;;;40.73;37.13;;;;;;;21.11;41.97;94058.41;5907299;29;109365;-63
2023/04/26 02:18:58;;;;;;;39.37;35.93;;;;;;;21.16;42.24;94065.41;5902560;29;108977;-62
2023/04/26 02:22:01;;;;;;;40.07;36.63;;;;;;;21.15;41.86;94055.88;5903897;29;109222;-62
2023/04/26 02:25:07;;;;;;;39.77;36.27;;;;;;;21.15;42.33;94047.91;5893762;29;109039;-62
2023/04/26 02:28:10;;;;;;;39.50;36.20;;;;;;;21.14;42.17;94062.31;5905933;29;109154;-62
2023/04/26 02:31:13;;;;;;;36.67;33.50;;;;;;;21.14;42.44;94065.75;5903799;29;109133;-62
2023/04/26 02:34:16;;;;;;;35.63;32.57;;;;;;;21.13;42.32;94066.84;5916062;29;108909;-63
2023/04/26 02:37:20;;;;;;;35.97;32.87;;;;;;;21.14;42.21;94068.41;5907566;29;109812;-62
2023/04/26 02:40:25;;;;;;;33.20;30.47;;;;;;;21.13;41.96;94066.06;5920467;29;109019;-63
2023/04/26 02:43:28;;;;;;;30.70;28.10;;;;;;;21.13;42.37;94068.72;5912143;29;109011;-62
2023/04/26 02:46:31;;;;;;;29.50;27.10;;;;;;;21.13;42.39;94055.44;5914123;29;109029;-62
2023/04/26 02:49:34;;;;;;;29.63;27.13;;;;;;;21.13;42.38;94058.09;5912195;29;108924;-62
2023/04/26 02:52:37;;;;;;;29.93;27.33;;;;;;;21.14;42.82;94052.44;5914756;29;108860;-62
2023/04/26 02:55:42;;;;;;;27.50;25.20;;;;;;;21.14;42.10;94043.69;5910776;29;108942;-62
2023/04/26 02:58:45;;;;;;;26.83;24.53;;;;;;;21.19;42.70;94032.88;5885297;29;110340;-68
2023/04/26 03:01:48;;;;;;;27.00;24.70;;;;;;;21.18;42.64;94034.75;5902655;29;108985;-68
2023/04/26 03:04:51;;;;;;;29.90;26.80;;;;;;;21.21;42.20;94041.31;5907204;29;109436;-68
2023/04/26 03:07:54;;;;;;;27.17;24.60;;;;;;;21.21;42.39;94042.09;5894119;29;108949;-69
2023/04/26 03:10:59;;;;;;;24.80;22.70;;;;;;;21.23;42.57;94055.06;5880157;29;109642;-68
2023/04/26 03:14:02;;;;;;;21.10;19.30;;;;;;;21.29;42.47;94047.66;5897753;29;109128;-71
2023/04/26 03:17:05;;;;;;;21.27;19.37;;;;;;;21.33;42.58;94043.22;5896052;29;109021;-70
2023/04/26 03:20:09;;;;;;;20.70;18.63;;;;;;;21.29;43.29;94035.13;5893765;29;109125;-62
2023/04/26 03:23:13;;;;;;;17.93;16.30;;;;;;;21.07;41.90;94046.88;5900563;29;109136;-62
2023/04/26 03:26:17;;;;;;;17.50;15.83;;;;;;;20.76;41.58;94028.56;5897103;29;109276;-62
2023/04/26 03:29:20;;;;;;;16.70;15.10;;;;;;;20.70;41.34;94037.84;5897257;29;108912;-62
2023/04/26 03:32:23;;;;;;;23.20;21.30;;;;;;;20.56;41.30;94042.59;5900690;29;108935;-65
2023/04/26 03:35:27;;;;;;;16.40;15.00;;;;;;;20.44;41.03;94045.91;5885181;29;110131;-62
2023/04/26 03:38:30;;;;;;;12.00;11.03;;;;;;;20.30;40.59;94045.34;5897418;29;109146;-64
2023/04/26 03:41:38;;;;;;;8.57;7.87;;;;;;;20.29;40.55;94039.25;5888930;29;108936;-63
2023/04/26 03:44:41;;;;;;;10.57;9.67;;;;;;;20.25;40.46;94043.66;5875625;29;110948;-63
2023/04/26 03:47:44;;;;;;;14.63;13.13;;;;;;;20.54;40.14;94055.44;5893182;29;108936;-62
2023/04/26 03:50:47;;;;;;;17.20;15.77;;;;;;;20.65;40.13;94045.19;5885981;29;108929;-62
2023/04/26 03:53:51;;;;;;;20.03;18.03;;;;;;;20.73;40.14;94058.47;5895841;29;110552;-63
2023/04/26 03:56:55;;;;;;;16.60;15.10;;;;;;;20.73;39.96;94055.81;5907458;29;109118;-64
2023/04/26 03:59:58;;;;;;;13.60;12.40;;;;;;;20.73;42.28;94052.38;5900855;29;108944;-63
2023/04/26 04:03:01;;;;;;;12.17;11.13;;;;;;;20.72;41.52;94064.09;5905700;29;109143;-63
2023/04/26 04:06:05;;;;;;;8.87;8.13;;;;;;;20.82;41.08;94053.84;5891311;29;109205;-64
2023/04/26 04:09:08;;;;;;;10.00;9.20;;;;;;;20.83;41.04;94058.06;5897271;29;108938;-66
2023/04/26 04:12:13;;;;;;;10.43;9.43;;;;;;;20.90;40.13;94063.69;5893118;29;109127;-65
2023/04/26 04:15:16;;;;;;;6.73;6.17;;;;;;;20.88;39.53;94065.88;5910866;29;109828;-67
2023/04/26 04:18:19;;;;;;;6.20;5.60;;;;;;;20.92;40.56;94082.75;5901378;29;110830;-65
2023/04/26 04:21:22;;;;;;;6.27;5.67;;;;;;;20.77;40.96;94077.19;5917409;29;109422;-62
2023/04/26 04:24:26;;;;;;;5.20;4.80;;;;;;;20.76;40.13;94079.09;5906479;29;108962;-63
2023/04/26 04:27:30;;;;;;;5.40;4.90;;;;;;;20.64;40.65;94081.63;5906266;29;108961;-62
2023/04/26 04:30:34;;;;;;;5.50;4.93;;;;;;;20.69;39.77;94078.03;5896856;29;109101;-62
2023/04/26 04:33:37;;;;;;;5.60;5.00;;;;;;;20.69;40.00;94084.13;5906106;29;108941;-62
2023/04/26 04:36:40;;;;;;;4.50;3.80;;;;;;;20.65;39.86;94083.19;5905958;29;108946;-62
2023/04/26 04:39:44;;;;;;;4.40;4.00;;;;;;;20.71;39.70;94100.53;5900988;29;109802;-63
2023/04/26 04:42:48;;;;;;;4.30;3.90;;;;;;;20.69;39.64;94084.13;5901597;29;108938;-62
2023/04/26 04:45:52;;;;;;;4.10;3.80;;;;;;;20.70;39.35;94095.53;5905783;29;109067;-62
2023/04/26 04:48:55;;;;;;;4.40;4.10;;;;;;;20.69;39.71;94092.09;5905892;29;108908;-62
2023/04/26 04:51:58;;;;;;;4.27;3.90;;;;;;;20.69;39.74;94084.13;5895335;29;108954;-62
2023/04/26 04:55:02;;;;;;;5.57;5.17;;;;;;;20.69;39.82;94094.75;5905829;29;108942;-62
2023/04/26 04:58:06;;;;;;;5.40;4.93;;;;;;;20.53;39.99;94086.53;5905620;29;109039;-71
2023/04/26 05:01:09;;;;;;;4.93;4.53;;;;;;;20.58;40.27;94085.56;5906304;29;109063;-62
2023/04/26 05:04:12;;;;;;;5.93;5.50;;;;;;;20.60;40.25;94101.97;5894625;29;108953;-62
2023/04/26 05:07:17;;;;;;;5.97;5.40;;;;;;;20.60;39.97;94099.31;5905191;29;108939;-63
2023/04/26 05:10:20;;;;;;;6.23;5.73;;;;;;;20.56;40.08;94085.91;5904970;29;108936;-63
2023/04/26 05:13:25;;;;;;;6.27;5.77;;;;;;;20.57;40.02;94103.41;5900878;29;109031;-63
2023/04/26 05:16:28;;;;;;;6.30;5.80;;;;;;;20.54;40.23;94095.28;5899702;29;109012;-63
2023/04/26 05:19:31;;;;;;;7.63;7.00;;;;;;;20.58;39.97;94093.56;5905479;29;108874;-63
2023/04/26 05:22:35;;;;;;;20.10;18.20;;;;;;;20.57;39.87;94094.66;5905627;29;108863;-65
2023/04/26 05:25:38;;;;;;;15.43;14.17;;;;;;;20.57;40.04;94106.06;5895500;29;109959;-63
2023/04/26 05:28:43;;;;;;;10.00;9.20;;;;;;;20.57;40.02;94097.31;5905053;29;109028;-63
2023/04/26 05:31:46;;;;;;;8.63;7.93;;;;;;;20.57;39.80;94107.94;5892555;29;108893;-63
2023/04/26 05:34:49;;;;;;;8.20;7.60;;;;;;;20.58;39.78;94101.53;5882992;29;108919;-62
2023/04/26 05:37:53;;;;;;;7.97;7.17;;;;;;;20.62;39.54;94107.75;5873602;29;109525;-62
2023/04/26 05:40:56;;;;;;;8.07;7.37;;;;;;;20.61;40.06;94111.50;5882257;29;109062;-59
2023/04/26 05:44:00;;;;;;;7.63;7.00;;;;;;;20.52;39.83;94108.13;5883071;29;108956;-59
2023/04/26 05:47:03;;;;;;;8.87;8.17;;;;;;;20.55;39.82;94112.78;5882831;29;108911;-60
2023/04/26 05:50:08;;;;;;;8.53;7.83;;;;;;;20.55;39.95;94115.47;5873560;29;109033;-60
2023/04/26 05:53:11;;;;;;;8.00;7.40;;;;;;;20.56;40.04;94114.34;5882868;29;109193;-59
2023/04/26 05:56:14;;;;;;;7.60;7.00;;;;;;;20.60;39.89;94113.38;5882698;29;108908;-60
2023/04/26 05:59:18;;;;;;;13.77;11.10;;;;;;;20.61;40.09;94108.84;5877050;29;110211;-62
2023/04/26 06:02:22;;;;;;;13.60;12.50;;;;;;;20.61;40.17;94109.63;5879495;29;109151;-60
2023/04/26 06:05:25;;;;;;;14.43;13.23;;;;;;;20.59;40.22;94116.38;5882682;29;108957;-60
2023/04/26 06:08:29;;;;;;;10.83;10.03;;;;;;;20.58;40.39;94109.50;5882304;29;108984;-60
2023/04/26 06:11:32;;;;;;;9.10;8.40;;;;;;;20.65;40.45;94109.78;5871451;29;108980;-60
2023/04/26 06:14:36;;;;;;;8.93;8.03;;;;;;;20.67;40.31;94107.59;5882558;29;108987;-59
2023/04/26 06:17:40;;;;;;;6.90;6.30;;;;;;;20.66;40.34;94107.88;5882100;29;108934;-59
2023/04/26 06:20:43;;;;;;;8.30;7.70;;;;;;;20.85;40.89;94103.75;5882147;29;108999;-61
2023/04/26 06:23:47;;;;;;;6.90;6.30;;;;;;;21.00;41.60;94109.59;5872115;29;109200;-61
2023/04/26 06:26:50;;;;;;;6.37;5.87;;;;;;;20.99;41.11;94113.38;5890037;29;109022;-63
2023/04/26 06:29:54;;;;;;;6.67;5.97;;;;;;;21.05;40.54;94107.59;5903948;29;108919;-61
2023/04/26 06:32:58;;;;;;;6.43;5.83;;;;;;;21.05;40.99;94112.13;5899925;29;108923;-61
2023/04/26 06:36:02;;;;;;;6.83;5.93;;;;;;;21.04;40.63;94107.88;5898111;29;109332;-62
2023/04/26 06:39:05;;;;;;;5.83;5.40;;;;;;;21.06;40.48;94103.06;5904172;29;108942;-62
2023/04/26 06:42:08;;;;;;;5.40;4.87;;;;;;;21.00;40.67;94088.34;5903478;29;108901;-62
2023/04/26 06:45:14;;;;;;;5.27;4.87;;;;;;;21.06;40.78;94098.50;5894895;29;109364;-62
2023/04/26 06:48:17;;;;;;;6.33;5.73;;;;;;;21.11;40.34;94106.31;5904219;29;108870;-61
2023/04/26 06:51:20;;;;;;;5.70;5.30;;;;;;;21.07;40.75;94099.28;5903964;29;108919;-62
2023/04/26 06:54:28;;;;;;;7.30;6.60;;;;;;;21.07;40.63;94100.06;5903629;29;108966;-62
2023/04/26 06:57:31;;;;;;;7.43;6.80;;;;;;;21.05;40.35;94104.94;5893845;29;109353;-62
2023/04/26 07:00:36;;;;;;;6.27;5.77;;;;;;;21.02;40.32;94107.44;5903754;29;108916;-62
2023/04/26 07:03:41;;;;;;;6.40;5.90;;;;;;;21.00;40.41;94114.94;5903951;29;108895;-64
2023/04/26 07:06:45;;;;;;;6.20;5.70;;;;;;;20.98;40.45;94114.47;5903042;29;110521;-64
2023/04/26 07:09:48;;;;;;;5.60;5.20;;;;;;;20.93;39.88;94110.13;5893234;29;109058;-64
2023/04/26 07:12:51;;;;;;;5.93;5.53;;;;;;;21.05;40.17;94118.25;5903114;29;108903;-64
2023/04/26 07:15:55;;;;;;;6.20;5.57;;;;;;;21.12;40.21;94123.81;5903552;29;108968;-63
2023/04/26 07:18:58;;;;;;;5.43;4.93;;;;;;;21.16;40.36;94121.28;5895247;29;108995;-64
2023/04/26 07:22:02;;;;;;;5.50;5.00;;;;;;;21.18;40.08;94113.78;5902665;29;108925;-66
2023/04/26 07:25:06;;;;;;;5.30;4.80;;;;;;;21.21;39.70;94119.25;5903649;29;108957;-67
2023/04/26 07:28:10;;;;;;;4.50;4.20;;;;;;;21.29;39.85;94114.19;5905272;29;108967;-67
2023/04/26 07:31:15;;;;;;;4.20;3.90;;;;;;;21.32;39.85;94124.94;5896997;29;108937;-67
2023/04/26 07:34:18;;;;;;;4.27;3.87;;;;;;;21.29;39.76;94128.25;5907577;29;108954;-67
2023/04/26 07:37:21;;;;;;;4.60;4.30;;;;;;;21.29;39.67;94127.47;5907228;29;109043;-66
2023/04/26 07:40:25;;;;;;;4.10;3.80;;;;;;;21.32;39.39;94132.94;5907214;29;108988;-66
2023/04/26 07:43:28;;;;;;;3.93;3.63;;;;;;;21.34;39.27;94130.75;5896214;29;109004;-66
2023/04/26 07:46:33;;;;;;;4.33;3.80;;;;;;;21.34;39.19;94124.63;5907107;29;108914;-66
2023/04/26 07:49:36;;;;;;;3.83;3.63;;;;;;;21.40;39.10;94140.09;5907494;29;108952;-66
2023/04/26 07:52:39;;;;;;;4.27;3.97;;;;;;;21.41;38.94;94133.66;5902308;29;109051;-66
2023/04/26 07:55:42;;;;;;;3.73;3.43;;;;;;;21.42;39.19;94137.09;5902286;29;108918;-68
2023/04/26 07:58:45;;;;;;;4.00;3.70;;;;;;;21.50;38.95;94139.69;5906831;29;109072;-62
2023/04/26 08:01:50;;;;;;;3.70;3.40;;;;;;;21.50;38.86;94133.59;5906708;29;108997;-62
2023/04/26 08:04:54;;;;;;;4.77;4.33;;;;;;;21.48;38.87;94139.25;5896466;29;108912;-61
2023/04/26 08:07:57;;;;;;;3.27;3.07;;;;;;;21.46;38.54;94138.78;5906658;29;108921;-62
2023/04/26 08:11:01;;;;;;;3.73;3.53;;;;;;;21.48;38.79;94147.22;5906622;29;108909;-62
2023/04/26 08:14:04;;;;;;;3.67;3.43;;;;;;;21.50;38.18;94141.59;5906185;29;108893;-60
2023/04/26 08:17:09;;;;;;;3.73;2.80;;;;;;;21.52;38.26;94148.16;5896049;29;109136;-59
2023/04/26 08:20:13;;;;;;;3.17;2.93;;;;;;;21.54;37.95;94139.06;5906806;29;108891;-60
2023/04/26 08:23:18;;;;;;;3.60;3.30;;;;;;;21.43;38.12;94136.00;5906509;29;109144;-60
2023/04/26 08:26:21;;;;;;;3.40;3.10;;;;;;;21.44;38.23;94141.00;5906652;29;108962;-61
2023/04/26 08:29:25;;;;;;;2.93;2.73;;;;;;;21.35;38.82;94137.63;5897604;29;108932;-60
2023/04/26 08:32:30;;;;;;;4.53;4.00;;;;;;;21.39;38.44;94143.09;5906416;29;108901;-60
2023/04/26 08:35:33;;;;;;;3.67;3.40;;;;;;;21.35;38.08;94148.28;5906578;29;108882;-59
2023/04/26 08:38:36;;;;;;;3.60;3.30;;;;;;;21.35;38.22;94150.16;5895517;29;108986;-60
2023/04/26 08:41:44;;;;;;;3.40;3.20;;;;;;;21.31;38.12;94149.22;5905668;29;108954;-60
2023/04/26 08:44:47;;;;;;;3.30;3.10;;;;;;;21.26;37.97;94141.44;5905483;29;109165;-59
2023/04/26 08:47:53;;;;;;;3.63;3.33;;;;;;;21.25;38.02;94140.66;5906282;29;108885;-60
2023/04/26 08:50:56;;;;;;;4.30;3.93;;;;;;;21.23;37.72;94136.75;5895980;29;109439;-59
2023/04/26 08:54:03;;;;;;;3.83;3.63;;;;;;;21.21;37.79;94142.41;5906111;29;108939;-59
2023/04/26 08:57:07;;;;;;;3.60;3.40;;;;;;;21.21;37.75;94148.50;5905915;29;108902;-60
2023/04/26 09:00:12;;;;;;;3.80;3.50;;;;;;;21.18;37.87;94137.72;5905864;29;108956;-59
2023/04/26 09:03:17;;;;;;;3.53;3.30;;;;;;;21.24;37.79;94138.31;5895296;29;109188;-60
2023/04/26 09:06:20;;;;;;;3.53;3.23;;;;;;;21.26;37.93;94144.09;5905865;29;108853;-61
2023/04/26 09:09:25;;;;;;;3.40;3.20;;;;;;;21.25;37.69;94140.66;5905608;29;108893;-60
2023/04/26 09:12:31;;;;;;;3.30;3.10;;;;;;;21.26;37.48;94154.75;5900382;29;108881;-60
2023/04/26 09:15:34;;;;;;;2.83;2.63;;;;;;;21.25;37.72;94151.28;5901574;29;110006;-60
2023/04/26 09:18:49;;;;;;;3.70;3.40;;;;;;;21.23;37.71;94148.19;5905775;29;108966;-60
2023/04/26 09:21:52;;;;;;;3.07;2.87;;;;;;;21.21;37.42;94145.84;5905747;29;108919;-61
2023/04/26 09:24:55;;;;;;;3.03;2.83;;;;;;;21.19;37.35;94155.25;5895496;29;110926;-61
2023/04/26 09:28:00;;;;;;;3.90;2.80;;;;;;;21.16;37.00;94156.66;5905646;29;108994;-60
2023/04/26 09:31:03;;;;;;;3.17;3.00;;;;;;;21.14;37.23;94153.53;5905326;29;108895;-64
2023/04/26 09:34:08;;;;;;;3.20;3.00;;;;;;;21.13;37.21;94157.28;5905568;29;108864;-60
2023/04/26 09:37:12;;;;;;;3.10;2.90;;;;;;;21.13;37.03;94151.97;5896027;29;109644;-60
2023/04/26 09:40:19;;;;;;;2.60;2.50;;;;;;;21.12;37.06;94144.31;5905424;29;108926;-60
2023/04/26 09:43:22;;;;;;;3.03;2.83;;;;;;;21.13;37.24;94151.19;5905128;29;108994;-60
2023/04/26 09:46:25;;;;;;;3.20;2.90;;;;;;;21.14;37.00;94142.91;5899738;29;108973;-60
2023/04/26 09:49:32;;;;;;;3.00;2.80;;;;;;;21.15;37.06;94146.34;5899457;29;108905;-60
2023/04/26 09:52:43;;;;;;;3.13;2.47;;;;;;;21.24;37.01;94140.97;5904727;29;108958;-59
2023/04/26 09:55:48;;;;;;;2.73;2.53;;;;;;;21.26;37.45;94152.84;5905056;29;108891;-60
2023/04/26 09:58:59;;;;;;;2.90;2.70;;;;;;;21.31;36.97;94147.34;5894435;29;109235;-59
2023/04/26 10:02:03;;;;;;;3.20;2.60;;;;;;;21.19;36.77;94126.00;5904875;29;109083;-59
2023/04/26 10:05:08;;;;;;;2.37;2.27;;;;;;;21.36;37.41;94143.72;5905038;29;108909;-59
2023/04/26 10:08:12;;;;;;;4.60;2.93;;;;;;;21.37;37.47;94139.97;5904790;29;108905;-60
2023/04/26 10:11:15;;;;;;;2.77;2.57;;;;;;;21.36;37.28;94143.72;5894645;29;108902;-60
2023/04/26 10:14:18;;;;;;;3.00;2.70;;;;;;;21.35;37.05;94134.97;5904662;29;108913;-59
2023/04/26 10:17:22;;;;;;;2.40;2.30;;;;;;;21.36;37.15;94133.09;5903674;29;108925;-59
2023/04/26 10:20:28;;;;;;;2.90;2.70;;;;;;;21.36;36.88;94128.53;5899850;29;108974;-68
2023/04/26 10:23:32;;;;;;;3.53;2.50;;;;;;;21.36;36.50;94133.88;5898995;29;109072;-59
2023/04/26 10:26:50;;;;;;;2.23;2.10;;;;;;;21.36;36.43;94127.78;5904408;29;108932;-60
2023/04/26 10:30:08;;;;;;;2.60;2.40;;;;;;;21.37;36.74;94129.31;5904206;29;108904;-59
2023/04/26 10:33:13;;;;;;;3.83;2.50;;;;;;;21.37;36.63;94124.00;5893751;29;108820;-60
2023/04/26 10:36:19;;;;;;;2.30;2.20;;;;;;;21.35;36.87;94124.31;5904203;29;109088;-60
2023/04/26 10:39:23;;;;;;;2.80;2.60;;;;;;;21.27;36.28;94117.16;5904381;29;109003;-60
2023/04/26 10:42:29;;;;;;;2.33;2.07;;;;;;;21.30;36.56;94121.84;5903965;29;108978;-60
2023/04/26 10:45:33;;;;;;;2.27;2.07;;;;;;;21.23;35.84;94124.25;5894033;29;109290;-59
2023/04/26 10:48:36;;;;;;;2.20;2.00;;;;;;;21.16;36.34;94129.28;5903188;29;109057;-59
2023/04/26 10:51:41;;;;;;;2.40;1.93;;;;;;;21.10;35.84;94126.03;5904476;29;108912;-70
2023/04/26 10:54:53;;;;;;;1.90;1.80;;;;;;;21.07;35.87;94121.34;5899485;29;110024;-59
2023/04/26 10:57:56;;;;;;;2.97;2.20;;;;;;;21.04;35.91;94126.50;5901680;29;109032;-62
2023/04/26 11:01:05;;;;;;;1.87;1.73;;;;;;;21.04;35.69;94129.16;5903872;29;108965;-62
2023/04/26 11:04:10;;;;;;;3.07;2.87;;;;;;;21.02;35.49;94116.19;5903140;29;109007;-62
2023/04/26 11:07:15;;;;;;;2.30;2.10;;;;;;;20.99;35.73;94124.00;5893389;29;109086;-62
2023/04/26 11:10:23;;;;;;;2.10;2.00;;;;;;;20.97;35.60;94118.25;5904056;29;108912;-62
2023/04/26 11:13:26;;;;;;;1.80;1.70;;;;;;;20.96;35.30;94120.13;5903974;29;108846;-61
2023/04/26 11:16:29;;;;;;;2.07;1.93;;;;;;;;;;5903783;29;108857;-61
2023/04/26 11:19:32;;;;;;;2.67;1.70;;;;;;;20.90;35.49;94108.13;5892955;29;109354;-61
2023/04/26 11:22:41;;;;;;;2.50;1.77;;;;;;;20.89;34.91;94117.97;5903373;29;108972;-63
2023/04/26 11:25:44;;;;;;;1.97;1.70;;;;;;;20.87;34.92;94125.50;5903619;29;108931;-62
2023/04/26 11:28:49;;;;;;;4.50;1.93;;;;;;;20.88;35.04;94119.06;5899052;29;109496;-61
2023/04/26 11:31:54;;;;;;;1.90;1.80;;;;;;;20.87;34.81;94117.50;5898128;29;108913;-62
2023/04/26 11:35:00;;;;;;;2.57;1.93;;;;;;;20.83;34.93;94111.25;5903324;29;108929;-62
2023/04/26 11:38:06;;;;;;;2.07;1.97;;;;;;;20.85;34.77;94118.94;5903675;29;108765;-62
2023/04/26 11:41:10;;;;;;;1.97;1.80;;;;;;;20.80;35.40;94101.25;5894077;29;109075;-72
2023/04/26 11:44:17;;;;;;;2.50;1.97;;;;;;;20.90;34.98;94122.19;5903748;29;109042;-62
2023/04/26 11:47:21;;;;;;;1.83;1.73;;;;;;;20.91;34.99;94120.31;5903371;29;108951;-62
2023/04/26 11:50:25;;;;;;;2.10;1.97;;;;;;;20.98;34.97;94111.81;5903012;29;108853;-62
2023/04/26 11:53:37;;;;;;;4.10;1.77;;;;;;;20.96;34.53;94114.78;5892628;29;109098;-63
2023/04/26 11:56:40;;;;;;;3.73;2.10;;;;;;;20.93;34.75;94102.94;5903400;29;108773;-65
2023/04/26 11:59:44;;;;;;;2.17;1.90;;;;;;;21.01;34.64;94113.84;5903410;29;108936;-63
2023/04/26 12:02:48;;;;;;;2.23;1.90;;;;;;;20.99;34.99;94102.72;5898570;29;109273;-63
2023/04/26 12:05:54;;;;;;;1.87;1.77;;;;;;;21.02;35.02;94107.44;5897919;29;108973;-63
2023/04/26 12:09:04;;;;;;;1.70;1.60;;;;;;;21.03;34.71;94109.00;5902596;29;108951;-62
2023/04/26 12:12:07;;;;;;;2.03;1.93;;;;;;;21.04;34.39;94099.91;5903764;29;108634;-62
2023/04/26 12:15:11;;;;;;;2.10;1.97;;;;;;;21.01;34.70;94088.03;5896355;29;108992;-62
2023/04/26 12:18:17;;;;;;;1.90;1.77;;;;;;;21.03;34.92;94093.81;5907114;29;108786;-62
2023/04/26 12:21:21;;;;;;;1.80;1.70;;;;;;;21.02;34.58;94092.25;5905909;29;109137;-65
2023/04/26 12:24:28;;;;;;;3.43;1.97;;;;;;;21.04;34.65;94086.63;5906768;29;109039;-62
2023/04/26 12:27:32;;;;;;;1.80;1.70;;;;;;;21.05;34.55;94093.53;5896834;29;111075;-62
2023/04/26 12:30:35;;;;;;;4.17;2.37;;;;;;;21.02;34.58;94097.56;5906889;29;108858;-63
2023/04/26 12:33:38;;;;;;;2.03;1.93;;;;;;;21.01;34.77;94080.06;5906526;29;108905;-66
2023/04/26 12:36:43;;;;;;;2.70;2.50;;;;;;;21.01;34.12;94082.72;5901643;29;109076;-61
2023/04/26 12:39:47;;;;;;;4.40;2.20;;;;;;;21.00;34.29;94101.63;5900846;29;109327;-61
2023/04/26 12:42:51;;;;;;;2.50;2.30;;;;;;;21.00;34.24;94085.66;5906495;29;108927;-62
2023/04/26 12:45:54;;;;;;;2.40;2.10;;;;;;;20.98;34.28;94093.19;5906207;29;108987;-61
2023/04/26 12:48:57;;;;;;;2.20;2.00;;;;;;;20.97;34.15;94089.75;5896152;29;108891;-61
2023/04/26 12:52:00;;;;;;;1.97;1.87;;;;;;;20.93;33.91;94089.63;5905747;29;108934;-62
2023/04/26 12:55:06;;;;;;;2.03;1.77;;;;;;;20.97;33.98;94089.75;5906130;29;108970;-62
2023/04/26 12:58:09;;;;;;;2.20;1.70;;;;;;;20.98;34.10;94096.63;5905792;29;108976;-63
2023/04/26 13:01:13;;;;;;;2.10;1.90;;;;;;;20.96;34.19;94100.72;5895944;29;108920;-61
2023/04/26 13:04:16;;;;;;;2.93;2.13;;;;;;;20.93;34.25;94096.81;5906160;29;108969;-68
2023/04/26 13:07:20;;;;;;;2.20;1.93;;;;;;;20.93;34.22;94099.50;5905152;29;109042;-63
2023/04/26 13:10:25;;;;;;;1.80;1.70;;;;;;;20.89;33.96;94104.69;5905770;29;108992;-62
2023/04/26 13:13:28;;;;;;;2.37;1.90;;;;;;;20.89;34.05;94110.00;5896164;29;109935;-62
2023/04/26 13:16:44;;;;;;;2.20;1.70;;;;;;;20.86;34.12;94112.53;5905628;29;108909;-62
2023/04/26 13:19:47;;;;;;;2.53;2.30;;;;;;;20.87;34.24;94114.84;5905411;29;109080;-62
2023/04/26 13:22:51;;;;;;;2.03;1.90;;;;;;;20.87;34.04;94114.84;5895261;29;110356;-62
2023/04/26 13:25:55;;;;;;;1.83;1.73;;;;;;;20.79;33.66;94115.66;5904164;29;109076;-62
2023/04/26 13:28:58;;;;;;;2.37;2.17;;;;;;;20.79;33.38;94120.97;5905867;29;108911;-62
2023/04/26 13:32:02;;;;;;;3.00;1.80;;;;;;;20.80;33.88;94129.72;5905805;29;108958;-62
2023/04/26 13:35:06;;;;;;;2.00;1.90;;;;;;;20.80;33.80;94127.84;5895228;29;108934;-62
2023/04/26 13:38:10;;;;;;;2.60;2.37;;;;;;;20.80;33.55;94135.81;5905119;29;108968;-63
2023/04/26 13:41:15;;;;;;;2.50;2.30;;;;;;;20.80;33.64;94135.81;5905710;29;108923;-62
2023/04/26 13:44:18;;;;;;;2.10;1.90;;;;;;;20.71;33.97;94135.09;5907599;29;109542;-63
2023/04/26 13:47:22;;;;;;;2.00;1.80;;;;;;;20.78;33.53;94140.69;5897070;29;108893;-62
2023/04/26 13:50:25;;;;;;;2.73;2.47;;;;;;;20.78;33.83;94148.66;5905946;29;108895;-62
2023/04/26 13:53:28;;;;;;;3.63;2.30;;;;;;;20.81;33.12;94150.69;5904515;29;108889;-62
2023/04/26 13:56:33;;;;;;;2.30;1.90;;;;;;;20.78;33.46;94153.19;5900069;29;109313;-62
2023/04/26 13:59:36;;;;;;;2.47;2.30;;;;;;;20.79;33.55;94150.22;5902132;29;110122;-64
2023/04/26 14:02:39;;;;;;;2.53;2.33;;;;;;;20.78;33.38;94153.97;5905153;29;109001;-63
2023/04/26 14:05:43;;;;;;;2.47;2.27;;;;;;;20.79;33.81;94168.84;5905081;29;108976;-62
2023/04/26 14:08:46;;;;;;;2.33;2.23;;;;;;;20.80;33.76;94164.28;5893579;29;109070;-61
2023/04/26 14:11:50;;;;;;;2.40;2.30;;;;;;;20.77;33.62;94168.38;5904767;29;109046;-65